createdAt,value
2023-11-30T00:01:03.975Z,-2.38
2023-11-30T00:03:31.718Z,-2.50
2023-11-30T00:05:59.324Z,-2.44
2023-11-30T00:08:26.933Z,-2.45
2023-11-30T00:10:54.521Z,-2.48
2023-11-30T00:13:22.103Z,-2.54
2023-11-30T00:15:50.963Z,-2.58
2023-11-30T00:18:18.601Z,-2.71
2023-11-30T00:20:46.179Z,-2.73
2023-11-30T00:23:13.761Z,-2.65
2023-11-30T00:25:41.271Z,-2.78
2023-11-30T00:28:08.809Z,-2.69
2023-11-30T00:30:36.409Z,-2.70
2023-11-30T00:33:05.699Z,-2.77
2023-11-30T00:35:33.372Z,-2.71
2023-11-30T00:38:01.432Z,-2.80
2023-11-30T00:40:29.014Z,-2.77
2023-11-30T00:42:56.631Z,-2.64
2023-11-30T00:45:25.124Z,-2.52
2023-11-30T00:47:52.885Z,-2.62
2023-11-30T00:50:22.419Z,-2.60
2023-11-30T00:52:50.028Z,-2.57
2023-11-30T00:55:17.679Z,-2.71
2023-11-30T00:57:45.321Z,-2.79
2023-11-30T01:00:14.048Z,-3.01
2023-11-30T01:02:41.999Z,-2.89
2023-11-30T01:05:10.093Z,-2.81
2023-11-30T01:07:39.062Z,-2.71
2023-11-30T01:10:07.978Z,-2.77
2023-11-30T01:12:35.616Z,-2.73
2023-11-30T01:15:03.585Z,-2.81
2023-11-30T01:17:31.215Z,-3.03
2023-11-30T01:19:59.049Z,-2.98
2023-11-30T01:22:26.635Z,-2.99
2023-11-30T01:24:55.609Z,-3.00
2023-11-30T01:27:23.189Z,-3.03
2023-11-30T01:29:51.025Z,-2.90
2023-11-30T01:32:18.647Z,-2.73
2023-11-30T01:34:46.281Z,-2.86
2023-11-30T01:37:13.945Z,-2.88
2023-11-30T01:39:41.776Z,-2.77
2023-11-30T01:42:10.874Z,-2.68
2023-11-30T01:44:38.510Z,-2.58
2023-11-30T01:47:06.756Z,-2.69
2023-11-30T01:49:35.170Z,-2.78
2023-11-30T01:52:03.634Z,-2.83
2023-11-30T01:54:31.317Z,-2.83
2023-11-30T01:56:59.515Z,-2.83
2023-11-30T01:59:29.068Z,-2.71
2023-11-30T02:01:56.924Z,-2.74
2023-11-30T02:04:24.850Z,-2.78
2023-11-30T02:06:52.873Z,-2.73
2023-11-30T02:09:20.528Z,-2.74
2023-11-30T02:11:48.590Z,-2.78
2023-11-30T02:14:16.184Z,-2.72
2023-11-30T02:16:45.122Z,-2.62
2023-11-30T02:19:12.895Z,-2.65
2023-11-30T02:21:40.529Z,-2.61
2023-11-30T02:24:09.525Z,-2.58
2023-11-30T02:26:37.047Z,-2.52
2023-11-30T02:29:05.363Z,-2.48
2023-11-30T02:31:33.430Z,-2.54
2023-11-30T02:34:01.029Z,-2.45
2023-11-30T02:36:30.122Z,-2.20
2023-11-30T02:38:57.788Z,-2.07
2023-11-30T02:41:27.243Z,-1.99
2023-11-30T02:43:54.811Z,-2.02
2023-11-30T02:46:22.502Z,-1.96
2023-11-30T02:48:50.245Z,-2.04
2023-11-30T02:51:17.883Z,-1.90
2023-11-30T02:53:45.544Z,-1.94
2023-11-30T02:56:13.302Z,-2.01
2023-11-30T02:58:42.428Z,-2.12
2023-11-30T03:01:10.063Z,-2.01
2023-11-30T03:03:37.758Z,-2.06
2023-11-30T03:06:11.938Z,-2.20
2023-11-30T03:08:39.702Z,-2.25
2023-11-30T03:11:07.502Z,-2.34
2023-11-30T03:13:35.072Z,-2.19
2023-11-30T03:16:04.091Z,-2.20
2023-11-30T03:18:31.707Z,-2.20
2023-11-30T03:20:59.381Z,-2.21
2023-11-30T03:23:26.906Z,-2.30
2023-11-30T03:25:54.562Z,-2.31
2023-11-30T03:28:22.143Z,-2.30
2023-11-30T03:30:49.685Z,-2.26
2023-11-30T03:33:18.656Z,-2.07
2023-11-30T03:35:46.621Z,-2.14
2023-11-30T03:38:14.180Z,-2.11
2023-11-30T03:40:41.750Z,-2.18
2023-11-30T03:43:09.346Z,-2.25
2023-11-30T03:45:36.889Z,-2.23
2023-11-30T03:48:04.926Z,-2.26
2023-11-30T03:50:33.861Z,-2.23
2023-11-30T03:53:01.512Z,-2.43
2023-11-30T03:55:29.280Z,-2.39
2023-11-30T03:57:56.945Z,-2.47
2023-11-30T04:00:24.533Z,-2.37
2023-11-30T04:02:52.214Z,-2.32
2023-11-30T04:05:20.736Z,-2.12
2023-11-30T04:07:49.705Z,-2.23
2023-11-30T04:10:18.995Z,-2.31
2023-11-30T04:12:46.535Z,-2.23
2023-11-30T04:15:14.217Z,-2.29
2023-11-30T04:17:41.851Z,-2.31
2023-11-30T04:20:10.823Z,-2.50
2023-11-30T04:22:38.456Z,-2.63
2023-11-30T04:25:08.301Z,-2.54
2023-11-30T04:27:35.940Z,-2.48
2023-11-30T04:30:03.691Z,-2.82
2023-11-30T04:32:31.577Z,-2.94
2023-11-30T04:35:00.006Z,-2.88
2023-11-30T04:37:27.567Z,-2.85
2023-11-30T04:39:55.874Z,-2.96
2023-11-30T04:42:24.822Z,-2.91
2023-11-30T04:44:52.407Z,-3.02
2023-11-30T04:47:20.517Z,-3.05
2023-11-30T04:49:48.161Z,-3.09
2023-11-30T04:52:15.737Z,-2.96
2023-11-30T04:54:43.720Z,-3.05
2023-11-30T04:57:11.346Z,-3.05
2023-11-30T04:59:41.544Z,-2.91
2023-11-30T05:02:09.906Z,-2.98
2023-11-30T05:04:38.215Z,-2.89
2023-11-30T05:07:06.110Z,-3.03
2023-11-30T05:09:33.736Z,-3.17
2023-11-30T05:12:01.516Z,-3.14
2023-11-30T05:14:29.198Z,-3.21
2023-11-30T05:16:58.179Z,-3.23
2023-11-30T05:19:25.762Z,-3.28
2023-11-30T05:21:53.308Z,-3.42
2023-11-30T05:24:21.106Z,-3.56
2023-11-30T05:26:48.752Z,-3.66
2023-11-30T05:29:16.306Z,-3.65
2023-11-30T05:31:43.895Z,-3.58
2023-11-30T05:34:12.882Z,-3.80
2023-11-30T05:36:40.436Z,-3.83
2023-11-30T05:39:08.506Z,-3.67
2023-11-30T05:41:36.095Z,-3.75
2023-11-30T05:44:05.426Z,-3.59
2023-11-30T05:46:33.048Z,-3.58
2023-11-30T05:49:00.767Z,-3.71
2023-11-30T05:51:29.738Z,-3.67
2023-11-30T05:53:57.438Z,-3.72
2023-11-30T05:56:25.063Z,-3.81
2023-11-30T05:58:53.005Z,-3.81
2023-11-30T06:01:20.628Z,-3.91
2023-11-30T06:03:48.279Z,-3.82
2023-11-30T06:06:16.362Z,-3.90
2023-11-30T06:08:45.304Z,-3.85
2023-11-30T06:11:12.908Z,-3.76
2023-11-30T06:13:40.452Z,-3.80
2023-11-30T06:16:09.093Z,-3.97
2023-11-30T06:18:36.814Z,-3.96
2023-11-30T06:21:04.614Z,-3.96
2023-11-30T06:23:32.208Z,-3.99
2023-11-30T06:26:01.097Z,-4.26
2023-11-30T06:28:29.434Z,-4.35
2023-11-30T06:30:57.261Z,-4.27
2023-11-30T06:33:24.973Z,-4.21
2023-11-30T06:35:52.858Z,-4.17
2023-11-30T06:38:20.459Z,-4.13
2023-11-30T06:40:49.927Z,-4.12
2023-11-30T06:43:18.824Z,-4.17
2023-11-30T06:45:46.540Z,-4.35
2023-11-30T06:48:14.243Z,-4.38
2023-11-30T06:50:41.800Z,-4.41
2023-11-30T06:53:09.421Z,-4.35
2023-11-30T06:55:36.980Z,-4.30
2023-11-30T06:58:04.561Z,-4.34
2023-11-30T07:00:33.505Z,-4.35
2023-11-30T07:03:01.106Z,-4.40
2023-11-30T07:05:28.744Z,-4.31
2023-11-30T07:07:56.371Z,-4.21
2023-11-30T07:10:23.956Z,-4.23
2023-11-30T07:12:51.647Z,-4.21
2023-11-30T07:15:19.230Z,-4.22
2023-11-30T07:17:48.163Z,-4.17
2023-11-30T07:20:15.888Z,-4.30
2023-11-30T07:22:43.487Z,-4.30
2023-11-30T07:25:11.520Z,-4.30
2023-11-30T07:27:39.222Z,-4.24
2023-11-30T07:30:10.572Z,-4.27
2023-11-30T07:32:38.403Z,-4.22
2023-11-30T07:35:08.331Z,-4.37
2023-11-30T07:37:35.901Z,-4.40
2023-11-30T07:40:04.362Z,-4.62
2023-11-30T07:42:35.608Z,-4.41
2023-11-30T07:45:06.410Z,-4.27
2023-11-30T07:47:34.084Z,-4.26
2023-11-30T07:50:02.029Z,-4.27
2023-11-30T07:52:32.169Z,-4.19
2023-11-30T07:54:59.794Z,-4.11
2023-11-30T07:57:27.457Z,-4.30
2023-11-30T07:59:55.090Z,-4.19
2023-11-30T08:02:22.661Z,-4.10
2023-11-30T08:04:50.346Z,-4.01
2023-11-30T08:07:17.904Z,-4.01
2023-11-30T08:09:47.893Z,-3.88
2023-11-30T08:12:15.522Z,-3.84
2023-11-30T08:14:43.181Z,-3.85
2023-11-30T08:17:11.507Z,-3.80
2023-11-30T08:19:39.720Z,-3.82
2023-11-30T08:22:07.616Z,-3.76
2023-11-30T08:24:35.382Z,-3.64
2023-11-30T08:27:04.676Z,-3.53
2023-11-30T08:29:33.921Z,-3.52
2023-11-30T08:32:01.584Z,-3.51
2023-11-30T08:34:29.167Z,-3.44
2023-11-30T08:36:56.769Z,-3.30
2023-11-30T08:39:25.341Z,-3.21
2023-11-30T08:41:54.316Z,-3.08
2023-11-30T08:44:24.081Z,-2.94
2023-11-30T08:46:51.972Z,-2.79
2023-11-30T08:49:19.638Z,-2.70
2023-11-30T08:51:47.414Z,-2.67
2023-11-30T08:54:15.245Z,-2.62
2023-11-30T08:56:42.819Z,-2.44
2023-11-30T08:59:10.379Z,-2.34
2023-11-30T09:01:39.457Z,-2.29
2023-11-30T09:04:09.499Z,-2.24
2023-11-30T09:06:37.500Z,-2.02
2023-11-30T09:09:05.175Z,-2.00
2023-11-30T09:11:34.501Z,-1.86
2023-11-30T09:14:02.241Z,-1.69
2023-11-30T09:16:29.910Z,-1.68
2023-11-30T09:18:58.892Z,-1.67
2023-11-30T09:21:27.269Z,-1.71
2023-11-30T09:23:55.293Z,-1.64
2023-11-30T09:26:23.672Z,-1.59
2023-11-30T09:28:51.271Z,-1.54
2023-11-30T09:31:19.029Z,-1.51
2023-11-30T09:33:46.685Z,-1.36
2023-11-30T09:36:16.375Z,-1.27
2023-11-30T09:38:43.985Z,-1.24
2023-11-30T09:41:14.686Z,-1.27
2023-11-30T09:43:42.263Z,-1.25
2023-11-30T09:46:10.550Z,-1.36
2023-11-30T09:48:38.651Z,-1.36
2023-11-30T09:51:07.361Z,-1.29
2023-11-30T09:53:36.342Z,-1.13
2023-11-30T09:56:04.413Z,-1.10
2023-11-30T09:58:34.392Z,-1.15
2023-11-30T10:01:03.281Z,-1.13
2023-11-30T10:03:34.630Z,-1.08
2023-11-30T10:06:03.078Z,-1.06
2023-11-30T10:08:30.771Z,-0.99
2023-11-30T10:10:59.710Z,-0.93
2023-11-30T10:13:27.650Z,-0.81
2023-11-30T10:15:55.389Z,-0.83
2023-11-30T10:18:23.232Z,-0.75
2023-11-30T10:20:50.946Z,-0.78
2023-11-30T10:23:18.717Z,-0.62
2023-11-30T10:25:47.227Z,-0.44
2023-11-30T10:28:16.818Z,-0.37
2023-11-30T10:30:45.792Z,-0.32
2023-11-30T10:33:15.691Z,-0.28
2023-11-30T10:35:45.318Z,-0.20
2023-11-30T10:38:21.059Z,-0.15
2023-11-30T10:40:51.762Z,-0.20
2023-11-30T10:43:21.299Z,-0.19
2023-11-30T10:45:52.179Z,-0.06
2023-11-30T10:48:21.343Z,0.05
2023-11-30T10:50:51.459Z,0.06
2023-11-30T10:53:33.288Z,0.04
2023-11-30T10:56:01.893Z,-0.01
2023-11-30T10:58:34.134Z,0.06
2023-11-30T11:01:02.136Z,0.14
2023-11-30T11:03:30.494Z,0.11
2023-11-30T11:05:58.152Z,-0.07
2023-11-30T11:08:25.722Z,-0.19
2023-11-30T11:10:53.296Z,-0.17
2023-11-30T11:13:24.566Z,-0.11
2023-11-30T11:16:01.155Z,-0.04
2023-11-30T11:18:33.125Z,-0.14
2023-11-30T11:21:02.167Z,-0.44
2023-11-30T11:23:35.541Z,-0.31
2023-11-30T11:26:04.672Z,-0.22
2023-11-30T11:28:32.534Z,-0.02
2023-11-30T11:31:01.519Z,-0.12
2023-11-30T11:33:29.228Z,0.02
2023-11-30T11:35:57.358Z,-0.10
2023-11-30T11:38:25.127Z,0.03
2023-11-30T11:40:53.534Z,-0.14
2023-11-30T11:43:21.160Z,-0.03
2023-11-30T11:45:48.925Z,0.21
2023-11-30T11:48:17.960Z,0.40
2023-11-30T11:50:45.655Z,0.26
2023-11-30T11:53:13.207Z,0.38
2023-11-30T11:55:40.850Z,0.46
2023-11-30T11:58:08.878Z,0.53
2023-11-30T12:00:36.458Z,0.54
2023-11-30T12:03:08.735Z,0.44
2023-11-30T12:05:47.640Z,0.22
2023-11-30T12:08:15.886Z,0.27
2023-11-30T12:10:44.643Z,0.25
2023-11-30T12:13:14.065Z,0.18
2023-11-30T12:15:42.102Z,0.20
2023-11-30T12:18:11.120Z,0.29
2023-11-30T12:20:40.584Z,0.23
2023-11-30T12:23:08.241Z,0.19
2023-11-30T12:25:36.789Z,0.19
2023-11-30T12:28:04.567Z,0.18
2023-11-30T12:30:32.412Z,0.12
2023-11-30T12:33:00.152Z,-0.01
2023-11-30T12:35:27.765Z,-0.03
2023-11-30T12:37:56.907Z,-0.05
2023-11-30T12:40:24.487Z,-0.02
2023-11-30T12:42:52.146Z,-0.09
2023-11-30T12:45:19.909Z,-0.11
2023-11-30T12:47:47.835Z,-0.11
2023-11-30T12:50:15.584Z,-0.13
2023-11-30T12:52:43.290Z,-0.13
2023-11-30T12:55:12.456Z,-0.18
2023-11-30T12:57:40.837Z,-0.13
2023-11-30T13:00:15.812Z,-0.10
2023-11-30T13:02:46.350Z,-0.13
2023-11-30T13:05:14.769Z,-0.03
2023-11-30T13:07:42.661Z,-0.05
2023-11-30T13:10:12.567Z,-0.08
2023-11-30T13:12:41.669Z,-0.07
2023-11-30T13:15:11.925Z,-0.24
2023-11-30T13:17:41.078Z,-0.19
2023-11-30T13:20:13.621Z,-0.25
2023-11-30T13:22:41.564Z,-0.23
2023-11-30T13:25:11.229Z,-0.20
2023-11-30T13:27:40.296Z,-0.26
2023-11-30T13:30:09.951Z,-0.25
2023-11-30T13:32:37.651Z,-0.12
2023-11-30T13:35:06.706Z,-0.19
2023-11-30T13:37:34.401Z,-0.11
2023-11-30T13:40:02.003Z,-0.20
2023-11-30T13:42:29.584Z,-0.22
2023-11-30T13:44:58.563Z,-0.30
2023-11-30T13:47:26.310Z,-0.33
2023-11-30T13:49:54.806Z,-0.32
2023-11-30T13:52:22.587Z,-0.24
2023-11-30T13:54:50.216Z,-0.27
2023-11-30T13:57:17.828Z,-0.21
2023-11-30T13:59:45.450Z,-0.23
2023-11-30T14:02:14.407Z,-0.26
2023-11-30T14:04:42.012Z,-0.26
2023-11-30T14:07:09.671Z,-0.27
2023-11-30T14:09:37.279Z,-0.23
2023-11-30T14:12:05.554Z,-0.32
2023-11-30T14:14:33.168Z,-0.33
2023-11-30T14:17:04.397Z,-0.34
2023-11-30T14:19:35.013Z,-0.27
2023-11-30T14:22:03.965Z,-0.28
2023-11-30T14:24:31.661Z,-0.36
2023-11-30T14:26:59.554Z,-0.37
2023-11-30T14:29:27.392Z,-0.40
2023-11-30T14:31:55.997Z,-0.27
2023-11-30T14:34:23.662Z,-0.25
2023-11-30T14:36:53.247Z,-0.15
2023-11-30T14:39:25.424Z,-0.22
2023-11-30T14:41:53.075Z,-0.17
2023-11-30T14:44:20.670Z,-0.32
2023-11-30T14:46:48.273Z,-0.32
2023-11-30T14:49:15.869Z,-0.42
2023-11-30T14:51:45.308Z,-0.37
2023-11-30T14:54:16.184Z,-0.35
2023-11-30T14:56:44.050Z,-0.43
2023-11-30T14:59:11.619Z,-0.35
2023-11-30T15:01:39.781Z,-0.39
2023-11-30T15:04:10.237Z,-0.33
2023-11-30T15:06:39.637Z,-0.35
2023-11-30T15:09:07.752Z,-0.40
2023-11-30T15:11:37.075Z,-0.44
2023-11-30T15:14:06.044Z,-0.45
2023-11-30T15:16:33.765Z,-0.46
2023-11-30T15:19:01.694Z,-0.46
2023-11-30T15:21:29.940Z,-0.40
2023-11-30T15:23:57.641Z,-0.45
2023-11-30T15:26:25.214Z,-0.51
2023-11-30T15:28:58.468Z,-0.52
2023-11-30T15:31:26.900Z,-0.50
2023-11-30T15:33:55.029Z,-0.58
2023-11-30T15:36:22.807Z,-0.56
2023-11-30T15:38:50.458Z,-0.63
2023-11-30T15:41:18.224Z,-0.55
2023-11-30T15:43:44.984Z,-0.52
2023-11-30T15:46:13.869Z,-0.48
2023-11-30T15:48:41.735Z,-0.51
2023-11-30T15:51:12.276Z,-0.52
2023-11-30T15:53:40.514Z,-0.59
2023-11-30T15:56:08.961Z,-0.66
2023-11-30T15:58:38.434Z,-0.73
2023-11-30T16:01:06.154Z,-0.64
2023-11-30T16:03:35.076Z,-0.72
2023-11-30T16:06:02.743Z,-0.75
2023-11-30T16:08:30.374Z,-0.80
2023-11-30T16:10:57.913Z,-0.73
2023-11-30T16:13:25.520Z,-0.77
2023-11-30T16:15:53.084Z,-0.85
2023-11-30T16:18:20.869Z,-0.86
2023-11-30T16:20:49.814Z,-0.82
2023-11-30T16:23:17.419Z,-0.93
2023-11-30T16:25:45.145Z,-0.93
2023-11-30T16:28:12.710Z,-0.94
2023-11-30T16:30:40.259Z,-0.94
2023-11-30T16:33:07.901Z,-0.86
2023-11-30T16:35:35.514Z,-0.95
2023-11-30T16:38:04.458Z,-0.93
2023-11-30T16:40:32.006Z,-0.89
2023-11-30T16:42:59.550Z,-0.77
2023-11-30T16:45:28.745Z,-0.74
2023-11-30T16:47:56.586Z,-0.79
2023-11-30T16:50:24.220Z,-0.78
2023-11-30T16:52:51.743Z,-0.86
2023-11-30T16:55:20.739Z,-0.79
2023-11-30T16:57:48.324Z,-0.72
2023-11-30T17:00:17.170Z,-0.68
2023-11-30T17:02:44.904Z,-0.79
2023-11-30T17:05:12.801Z,-0.77
2023-11-30T17:07:41.479Z,-0.77
2023-11-30T17:10:09.650Z,-0.69
2023-11-30T17:12:38.596Z,-0.69
2023-11-30T17:15:06.996Z,-0.70
2023-11-30T17:17:34.996Z,-0.73
2023-11-30T17:20:02.559Z,-0.71
2023-11-30T17:22:31.088Z,-0.66
2023-11-30T17:24:58.648Z,-0.71
2023-11-30T17:27:26.265Z,-0.76
2023-11-30T17:29:55.182Z,-0.68
2023-11-30T17:32:22.831Z,-0.68
2023-11-30T17:34:50.675Z,-0.68
2023-11-30T17:37:18.357Z,-0.77
2023-11-30T17:39:46.087Z,-0.73
2023-11-30T17:42:13.643Z,-0.74
2023-11-30T17:44:41.235Z,-0.81
2023-11-30T17:47:10.107Z,-0.85
2023-11-30T17:49:37.674Z,-0.72
2023-11-30T17:52:05.925Z,-0.76
2023-11-30T17:54:33.585Z,-0.71
2023-11-30T17:57:01.148Z,-0.68
2023-11-30T17:59:28.710Z,-0.67
2023-11-30T18:01:56.275Z,-0.72
2023-11-30T18:04:25.543Z,-0.65
2023-11-30T18:06:53.254Z,-0.73
2023-11-30T18:09:20.973Z,-0.71
2023-11-30T18:11:48.539Z,-0.81
2023-11-30T18:14:16.241Z,-0.79
2023-11-30T18:16:44.841Z,-0.80
2023-11-30T18:19:13.008Z,-0.94
2023-11-30T18:21:41.926Z,-0.84
2023-11-30T18:24:09.517Z,-0.82
2023-11-30T18:26:37.090Z,-0.82
2023-11-30T18:29:04.680Z,-0.78
2023-11-30T18:31:33.054Z,-0.94
2023-11-30T18:34:00.744Z,-0.86
2023-11-30T18:36:28.328Z,-0.77
2023-11-30T18:38:57.501Z,-0.88
2023-11-30T18:41:26.315Z,-0.88
2023-11-30T18:43:53.900Z,-0.88
2023-11-30T18:46:21.503Z,-0.88
2023-11-30T18:48:49.231Z,-0.91
2023-11-30T18:51:16.850Z,-0.93
2023-11-30T18:53:44.453Z,-1.03
2023-11-30T18:56:13.579Z,-1.05
2023-11-30T18:58:41.526Z,-1.07
2023-11-30T19:01:10.935Z,-1.08
2023-11-30T19:03:39.153Z,-1.02
2023-11-30T19:06:07.453Z,-1.10
2023-11-30T19:08:35.002Z,-1.10
2023-11-30T19:11:02.527Z,-0.88
2023-11-30T19:13:31.431Z,-0.91
2023-11-30T19:15:59.035Z,-0.89
2023-11-30T19:18:26.922Z,-0.91
2023-11-30T19:20:54.549Z,-0.94
2023-11-30T19:23:22.082Z,-0.90
2023-11-30T19:25:49.639Z,-0.75
2023-11-30T19:28:17.234Z,-0.78
2023-11-30T19:30:46.536Z,-0.85
2023-11-30T19:33:14.182Z,-0.91
2023-11-30T19:35:41.713Z,-0.90
2023-11-30T19:38:09.324Z,-0.91
2023-11-30T19:40:36.937Z,-0.91
2023-11-30T19:43:04.554Z,-0.82
2023-11-30T19:45:32.165Z,-0.84
2023-11-30T19:48:01.252Z,-0.73
2023-11-30T19:50:30.347Z,-0.75
2023-11-30T19:52:57.868Z,-0.76
2023-11-30T19:55:27.345Z,-0.79
2023-11-30T19:57:54.929Z,-0.91
2023-11-30T20:00:22.663Z,-0.94
2023-11-30T20:02:50.273Z,-0.90
2023-11-30T20:05:19.240Z,-0.96
2023-11-30T20:07:47.190Z,-0.98
2023-11-30T20:10:14.815Z,-1.10
2023-11-30T20:12:42.840Z,-0.97
2023-11-30T20:15:11.231Z,-1.00
2023-11-30T20:17:38.864Z,-1.04
2023-11-30T20:20:07.346Z,-0.94
2023-11-30T20:22:36.239Z,-0.88
2023-11-30T20:25:03.846Z,-1.01
2023-11-30T20:27:31.731Z,-0.98
2023-11-30T20:29:59.297Z,-1.03
2023-11-30T20:32:27.071Z,-1.08
2023-11-30T20:34:54.709Z,-1.06
2023-11-30T20:37:22.391Z,-1.15
2023-11-30T20:39:51.292Z,-1.10
2023-11-30T20:42:18.883Z,-0.97
2023-11-30T20:44:47.787Z,-0.96
2023-11-30T20:47:15.940Z,-1.06
2023-11-30T20:49:43.466Z,-1.10
2023-11-30T20:52:10.993Z,-1.13
2023-11-30T20:54:39.009Z,-1.28
2023-11-30T20:57:09.139Z,-1.36
2023-11-30T20:59:38.615Z,-1.42
2023-11-30T21:02:07.598Z,-1.42
2023-11-30T21:04:35.392Z,-1.41
2023-11-30T21:07:02.993Z,-1.42
2023-11-30T21:09:30.755Z,-1.29
2023-11-30T21:11:58.296Z,-1.29
2023-11-30T21:14:27.223Z,-1.18
2023-11-30T21:16:55.011Z,-1.24
2023-11-30T21:19:22.634Z,-1.27
2023-11-30T21:21:50.204Z,-1.24
2023-11-30T21:24:17.887Z,-1.30
2023-11-30T21:26:45.679Z,-1.19
2023-11-30T21:29:13.243Z,-1.36
2023-11-30T21:31:42.346Z,-1.44
2023-11-30T21:34:10.348Z,-1.56
2023-11-30T21:36:42.884Z,-1.43
2023-11-30T21:39:10.879Z,-1.45
2023-11-30T21:41:38.497Z,-1.44
2023-11-30T21:44:06.406Z,-1.41
2023-11-30T21:46:36.642Z,-1.28
2023-11-30T21:49:06.018Z,-1.18
2023-11-30T21:51:34.138Z,-1.18
2023-11-30T21:54:02.270Z,-1.22
2023-11-30T21:56:29.930Z,-1.21
2023-11-30T21:58:57.573Z,-1.39
2023-11-30T22:01:25.591Z,-1.39
2023-11-30T22:03:53.377Z,-1.39
2023-11-30T22:06:22.401Z,-1.34
2023-11-30T22:08:53.375Z,-1.37
2023-11-30T22:11:21.002Z,-1.45
2023-11-30T22:13:48.593Z,-1.45
2023-11-30T22:16:21.078Z,-1.51
2023-11-30T22:18:51.658Z,-1.43
2023-11-30T22:21:19.610Z,-1.46
2023-11-30T22:23:49.248Z,-1.68
2023-11-30T22:26:16.889Z,-1.68
2023-11-30T22:28:44.451Z,-1.65
2023-11-30T22:31:16.721Z,-1.72
2023-11-30T22:33:45.055Z,-1.82
2023-11-30T22:36:13.273Z,-1.92
2023-11-30T22:38:46.006Z,-1.93
2023-11-30T22:41:15.663Z,-1.91
2023-11-30T22:43:43.233Z,-1.95
2023-11-30T22:46:17.272Z,-2.06
2023-11-30T22:48:45.040Z,-2.03
2023-11-30T22:51:12.716Z,-2.07
2023-11-30T22:53:40.311Z,-2.02
2023-11-30T22:56:10.054Z,-1.88
2023-11-30T22:58:39.079Z,-1.79
2023-11-30T23:01:07.059Z,-1.82
2023-11-30T23:03:35.103Z,-1.81
2023-11-30T23:06:02.871Z,-1.73
2023-11-30T23:08:30.491Z,-1.81
2023-11-30T23:10:58.129Z,-1.65
2023-11-30T23:13:25.770Z,-1.73
2023-11-30T23:15:54.811Z,-1.83
2023-11-30T23:18:22.439Z,-1.78
2023-11-30T23:20:50.012Z,-1.77
2023-11-30T23:23:17.814Z,-1.85
2023-11-30T23:25:45.435Z,-2.00
2023-11-30T23:28:13.358Z,-2.00
2023-11-30T23:30:41.080Z,-1.98
2023-11-30T23:33:12.411Z,-2.03
2023-11-30T23:35:40.071Z,-2.12
2023-11-30T23:38:08.110Z,-2.20
2023-11-30T23:40:35.652Z,-2.46
2023-11-30T23:43:03.269Z,-2.46
2023-11-30T23:45:30.994Z,-2.45
2023-11-30T23:47:58.745Z,-2.35
2023-11-30T23:50:27.759Z,-2.55
2023-11-30T23:52:55.339Z,-2.76
2023-11-30T23:55:22.964Z,-2.82
2023-11-30T23:57:50.551Z,-2.97
